createdAt,value
2019-02-14T00:00:19.373Z,11.13
2019-02-14T00:03:04.755Z,12.70
2019-02-14T00:05:49.996Z,10.60
2019-02-14T00:08:35.271Z,11.23
2019-02-14T00:11:20.239Z,10.90
2019-02-14T00:14:05.287Z,10.97
2019-02-14T00:16:51.153Z,11.07
2019-02-14T00:19:36.323Z,10.67
2019-02-14T00:22:21.670Z,12.00
2019-02-14T00:25:06.979Z,11.37
2019-02-14T00:27:52.196Z,11.43
2019-02-14T00:30:37.474Z,12.03
2019-02-14T00:33:22.239Z,13.80
2019-02-14T00:36:08.008Z,13.43
2019-02-14T00:38:53.291Z,12.33
2019-02-14T00:41:38.662Z,13.00
2019-02-14T00:44:23.668Z,12.13
2019-02-14T00:47:08.878Z,13.03
2019-02-14T00:49:53.769Z,11.97
2019-02-14T00:52:38.920Z,10.70
2019-02-14T00:55:23.973Z,11.43
2019-02-14T00:58:09.016Z,10.07
2019-02-14T01:00:53.938Z,11.00
2019-02-14T01:03:39.084Z,11.10
2019-02-14T01:06:24.777Z,11.00
2019-02-14T01:09:09.689Z,10.73
2019-02-14T01:11:54.917Z,9.50
2019-02-14T01:14:40.017Z,9.73
2019-02-14T01:17:25.473Z,9.77
2019-02-14T01:20:10.941Z,9.70
2019-02-14T01:22:56.281Z,9.20
2019-02-14T01:25:41.537Z,9.80
2019-02-14T01:28:26.754Z,9.17
2019-02-14T01:31:12.091Z,8.50
2019-02-14T01:33:57.316Z,8.83
2019-02-14T01:36:42.480Z,9.00
2019-02-14T01:39:28.318Z,9.40
2019-02-14T01:42:13.552Z,9.60
2019-02-14T01:44:58.636Z,10.20
2019-02-14T01:47:43.936Z,12.83
2019-02-14T01:50:29.134Z,13.10
2019-02-14T01:53:14.163Z,15.90
2019-02-14T01:55:59.502Z,15.87
2019-02-14T01:58:44.282Z,16.17
2019-02-14T02:01:29.594Z,14.67
2019-02-14T02:04:14.959Z,15.90
2019-02-14T02:07:00.033Z,15.03
2019-02-14T02:09:45.177Z,17.90
2019-02-14T02:12:30.397Z,16.70
2019-02-14T02:15:15.445Z,16.43
2019-02-14T02:18:00.579Z,15.47
2019-02-14T02:20:45.459Z,14.97
2019-02-14T02:23:30.550Z,13.60
2019-02-14T02:26:15.597Z,13.37
2019-02-14T02:29:00.645Z,13.77
2019-02-14T02:31:46.046Z,15.13
2019-02-14T02:34:31.239Z,15.13
2019-02-14T02:37:16.436Z,15.07
2019-02-14T02:40:02.013Z,14.93
2019-02-14T02:42:47.170Z,15.03
2019-02-14T02:45:32.532Z,16.77
2019-02-14T02:48:17.623Z,17.37
2019-02-14T02:51:02.839Z,17.30
2019-02-14T02:53:47.816Z,15.13
2019-02-14T02:56:32.673Z,12.63
2019-02-14T02:59:18.143Z,13.13
2019-02-14T03:02:03.105Z,12.80
2019-02-14T03:04:48.207Z,11.30
2019-02-14T03:07:33.493Z,13.43
2019-02-14T03:10:18.559Z,13.00
2019-02-14T03:13:04.124Z,13.70
2019-02-14T03:15:48.896Z,12.73
2019-02-14T03:18:34.201Z,11.30
2019-02-14T03:21:19.318Z,11.23
2019-02-14T03:24:04.795Z,11.97
2019-02-14T03:26:49.950Z,11.93
2019-02-14T03:29:35.422Z,11.47
2019-02-14T03:32:20.530Z,12.80
2019-02-14T03:35:06.747Z,11.57
2019-02-14T03:37:52.000Z,12.67
2019-02-14T03:40:37.695Z,12.83
2019-02-14T03:43:22.498Z,12.57
2019-02-14T03:46:07.416Z,12.27
2019-02-14T03:48:52.662Z,12.80
2019-02-14T03:51:37.895Z,12.50
2019-02-14T03:54:23.111Z,13.60
2019-02-14T03:57:08.194Z,13.37
2019-02-14T03:59:53.208Z,13.03
2019-02-14T04:02:38.722Z,13.80
2019-02-14T04:05:23.791Z,14.00
2019-02-14T04:08:09.229Z,13.80
2019-02-14T04:10:54.297Z,12.80
2019-02-14T04:13:39.402Z,13.60
2019-02-14T04:16:25.186Z,14.97
2019-02-14T04:19:10.339Z,14.30
2019-02-14T04:21:55.288Z,14.80
2019-02-14T04:24:40.764Z,15.03
2019-02-14T04:27:26.114Z,13.77
2019-02-14T04:30:12.942Z,14.37
2019-02-14T04:32:57.931Z,12.40
2019-02-14T04:35:42.627Z,13.03
2019-02-14T04:38:27.321Z,14.07
2019-02-14T04:41:12.354Z,11.43
2019-02-14T04:43:57.397Z,10.93
2019-02-14T04:46:42.198Z,11.23
2019-02-14T04:49:27.346Z,12.67
2019-02-14T04:52:12.946Z,11.57
2019-02-14T04:54:58.074Z,11.73
2019-02-14T04:57:43.449Z,12.07
2019-02-14T05:00:28.565Z,11.60
2019-02-14T05:03:13.424Z,11.77
2019-02-14T05:05:58.604Z,12.37
2019-02-14T05:08:43.882Z,10.57
2019-02-14T05:11:28.868Z,10.57
2019-02-14T05:14:14.356Z,13.33
2019-02-14T05:16:59.409Z,12.00
2019-02-14T05:19:44.834Z,9.60
2019-02-14T05:22:29.963Z,13.23
2019-02-14T05:25:15.258Z,10.20
2019-02-14T05:28:00.395Z,11.77
2019-02-14T05:30:45.538Z,11.10
2019-02-14T05:33:30.879Z,10.93
2019-02-14T05:36:16.136Z,10.37
2019-02-14T05:39:01.389Z,11.30
2019-02-14T05:41:46.689Z,10.00
2019-02-14T05:44:32.078Z,10.83
2019-02-14T05:47:17.383Z,10.17
2019-02-14T05:50:05.184Z,10.53
2019-02-14T05:52:50.206Z,10.30
2019-02-14T05:55:35.330Z,9.47
2019-02-14T05:58:20.614Z,10.50
2019-02-14T06:01:06.058Z,9.60
2019-02-14T06:03:51.321Z,11.00
2019-02-14T06:06:36.180Z,10.67
2019-02-14T06:09:21.305Z,10.40
2019-02-14T06:12:06.666Z,10.63
2019-02-14T06:14:51.819Z,11.50
2019-02-14T06:17:36.969Z,11.27
2019-02-14T06:20:21.883Z,13.87
2019-02-14T06:23:07.063Z,12.33
2019-02-14T06:25:52.346Z,11.47
2019-02-14T06:28:37.551Z,11.27
2019-02-14T06:31:22.802Z,12.10
2019-02-14T06:34:07.603Z,12.57
2019-02-14T06:36:52.855Z,14.33
2019-02-14T06:39:38.184Z,15.17
2019-02-14T06:42:23.785Z,16.37
2019-02-14T06:45:16.600Z,16.63
2019-02-14T06:48:01.627Z,14.23
2019-02-14T06:50:46.516Z,13.90
2019-02-14T06:53:31.602Z,13.23
2019-02-14T06:56:16.165Z,13.93
2019-02-14T06:59:01.040Z,15.37
2019-02-14T07:01:48.247Z,16.90
2019-02-14T07:04:33.502Z,16.10
2019-02-14T07:07:19.079Z,16.30
2019-02-14T07:10:06.505Z,16.93
2019-02-14T07:12:51.845Z,14.93
2019-02-14T07:15:36.823Z,17.67
2019-02-14T07:18:22.031Z,16.90
2019-02-14T07:21:06.901Z,17.87
2019-02-14T07:23:52.177Z,19.83
2019-02-14T07:26:37.170Z,18.70
2019-02-14T07:29:22.499Z,18.90
2019-02-14T07:32:07.555Z,18.23
2019-02-14T07:34:52.724Z,19.13
2019-02-14T07:37:37.712Z,20.87
2019-02-14T07:40:23.027Z,18.47
2019-02-14T07:43:07.849Z,18.10
2019-02-14T07:45:53.120Z,20.30
2019-02-14T07:48:38.003Z,21.10
2019-02-14T07:51:26.183Z,18.47
2019-02-14T07:54:11.877Z,16.10
2019-02-14T07:56:56.705Z,17.83
2019-02-14T07:59:41.684Z,17.07
2019-02-14T08:02:26.714Z,17.73
2019-02-14T08:05:11.946Z,17.10
2019-02-14T08:07:57.076Z,16.17
2019-02-14T08:10:42.305Z,16.23
2019-02-14T08:13:27.663Z,17.07
2019-02-14T08:16:12.374Z,17.20
2019-02-14T08:19:00.306Z,17.23
2019-02-14T08:21:44.939Z,20.00
2019-02-14T08:24:29.673Z,17.40
2019-02-14T08:27:15.067Z,17.50
2019-02-14T08:30:00.457Z,15.17
2019-02-14T08:32:45.321Z,14.90
2019-02-14T08:35:30.587Z,15.23
2019-02-14T08:38:15.276Z,16.40
2019-02-14T08:41:00.341Z,14.43
2019-02-14T08:43:45.686Z,14.00
2019-02-14T08:46:30.828Z,17.53
2019-02-14T08:49:15.502Z,13.30
2019-02-14T08:52:02.541Z,16.60
2019-02-14T08:54:47.842Z,17.03
2019-02-14T08:57:32.838Z,16.73
2019-02-14T09:00:17.674Z,18.63
2019-02-14T09:03:02.980Z,21.57
2019-02-14T09:05:50.737Z,15.47
2019-02-14T09:08:36.078Z,23.03
2019-02-14T09:11:24.227Z,17.70
2019-02-14T09:14:09.634Z,17.70
2019-02-14T09:16:54.598Z,16.27
2019-02-14T09:19:39.495Z,16.70
2019-02-14T09:22:24.805Z,17.33
2019-02-14T09:25:10.123Z,16.67
2019-02-14T09:27:54.852Z,16.63
2019-02-14T09:30:39.625Z,15.93
2019-02-14T09:33:24.479Z,17.67
2019-02-14T09:36:09.541Z,16.87
2019-02-14T09:38:54.560Z,17.47
2019-02-14T09:41:39.609Z,17.60
2019-02-14T09:44:24.815Z,15.07
2019-02-14T09:47:10.100Z,15.17
2019-02-14T09:49:55.540Z,13.97
2019-02-14T09:52:41.172Z,8.87
2019-02-14T09:55:26.056Z,9.53
2019-02-14T09:58:11.332Z,9.07
2019-02-14T10:00:56.410Z,9.40
2019-02-14T10:03:41.686Z,8.60
2019-02-14T10:06:26.634Z,7.33
2019-02-14T10:09:11.786Z,7.20
2019-02-14T10:11:56.597Z,8.33
2019-02-14T10:14:41.872Z,10.00
2019-02-14T10:17:26.700Z,8.67
2019-02-14T10:20:13.979Z,8.43
2019-02-14T10:22:59.391Z,9.63
2019-02-14T10:25:44.583Z,9.40
2019-02-14T10:28:29.615Z,12.70
2019-02-14T10:31:14.435Z,10.83
2019-02-14T10:33:59.872Z,11.47
2019-02-14T10:36:44.602Z,10.27
2019-02-14T10:39:29.476Z,11.20
2019-02-14T10:42:14.488Z,8.23
2019-02-14T10:44:59.760Z,9.83
2019-02-14T10:47:44.586Z,10.30
2019-02-14T10:50:29.583Z,7.90
2019-02-14T10:53:14.871Z,7.70
2019-02-14T10:55:59.748Z,9.50
2019-02-14T10:58:45.092Z,9.03
2019-02-14T11:01:30.112Z,8.73
2019-02-14T11:04:15.224Z,9.50
2019-02-14T11:07:00.458Z,7.93
2019-02-14T11:09:45.404Z,8.57
2019-02-14T11:12:30.680Z,6.97
2019-02-14T11:15:20.208Z,7.77
2019-02-14T11:18:05.509Z,10.97
2019-02-14T11:20:50.494Z,8.27
2019-02-14T11:23:35.278Z,8.13
2019-02-14T11:26:20.204Z,9.67
2019-02-14T11:29:05.162Z,10.60
2019-02-14T11:31:50.343Z,10.67
2019-02-14T11:34:35.652Z,12.10
2019-02-14T11:37:20.706Z,10.73
2019-02-14T11:40:08.863Z,11.20
2019-02-14T11:42:53.855Z,9.93
2019-02-14T11:45:38.921Z,10.47
2019-02-14T11:48:24.060Z,10.80
2019-02-14T11:51:09.181Z,11.87
2019-02-14T11:53:54.302Z,13.00
2019-02-14T11:56:39.434Z,13.17
2019-02-14T11:59:24.939Z,11.50
2019-02-14T12:02:10.214Z,9.73
2019-02-14T12:04:55.642Z,10.87
2019-02-14T12:07:40.974Z,8.87
2019-02-14T12:10:26.704Z,10.13
2019-02-14T12:13:11.806Z,8.03
2019-02-14T12:15:56.897Z,7.77
2019-02-14T12:18:42.138Z,9.47
2019-02-14T12:21:26.964Z,7.87
2019-02-14T12:24:12.359Z,7.93
2019-02-14T12:26:57.380Z,8.57
2019-02-14T12:29:42.735Z,8.57
2019-02-14T12:32:27.878Z,8.70
2019-02-14T12:35:13.651Z,10.07
2019-02-14T12:37:59.087Z,9.47
2019-02-14T12:40:44.209Z,9.90
2019-02-14T12:43:29.442Z,9.73
2019-02-14T12:46:14.995Z,10.37
2019-02-14T12:48:59.858Z,11.17
2019-02-14T12:51:45.177Z,9.60
2019-02-14T12:54:30.251Z,8.43
2019-02-14T12:57:17.860Z,9.20
2019-02-14T13:00:16.071Z,9.20
2019-02-14T13:03:00.779Z,10.50
2019-02-14T13:05:45.780Z,11.00
2019-02-14T13:08:30.860Z,9.47
2019-02-14T13:11:16.193Z,10.90
2019-02-14T13:14:01.194Z,11.33
2019-02-14T13:16:46.259Z,12.33
2019-02-14T13:19:31.526Z,12.43
2019-02-14T13:22:16.630Z,13.07
2019-02-14T13:25:01.452Z,12.80
2019-02-14T13:27:46.673Z,13.33
2019-02-14T13:30:31.729Z,13.17
2019-02-14T13:33:16.871Z,14.80
2019-02-14T13:36:01.968Z,13.73
2019-02-14T13:38:46.914Z,12.77
2019-02-14T13:41:31.999Z,13.70
2019-02-14T13:44:17.330Z,17.37
2019-02-14T13:47:02.412Z,14.53
2019-02-14T13:49:47.650Z,16.03
2019-02-14T13:52:32.457Z,16.40
2019-02-14T13:55:18.116Z,15.17
2019-02-14T13:58:02.834Z,16.43
2019-02-14T14:00:48.274Z,17.13
2019-02-14T14:03:33.084Z,16.27
2019-02-14T14:06:18.556Z,17.90
2019-02-14T14:09:06.886Z,17.60
2019-02-14T14:11:52.120Z,21.63
2019-02-14T14:14:37.126Z,16.20
2019-02-14T14:17:22.045Z,16.33
2019-02-14T14:20:08.091Z,15.33
2019-02-14T14:22:53.706Z,16.30
2019-02-14T14:25:38.874Z,17.63
2019-02-14T14:28:24.063Z,14.73
2019-02-14T14:31:09.071Z,14.07
2019-02-14T14:33:54.049Z,15.53
2019-02-14T14:36:40.034Z,15.73
2019-02-14T14:39:24.649Z,15.07
2019-02-14T14:42:12.293Z,15.17
2019-02-14T14:44:57.738Z,15.13
2019-02-14T14:47:42.847Z,14.10
2019-02-14T14:50:28.029Z,16.13
2019-02-14T14:53:12.998Z,15.67
2019-02-14T14:55:58.259Z,14.40
2019-02-14T14:58:43.105Z,13.87
2019-02-14T15:01:27.942Z,12.27
2019-02-14T15:04:12.965Z,13.40
2019-02-14T15:06:57.930Z,13.47
2019-02-14T15:09:45.430Z,13.60
2019-02-14T15:12:47.122Z,11.30
2019-02-14T15:15:31.960Z,12.23
2019-02-14T15:18:16.867Z,12.60
2019-02-14T15:21:02.290Z,12.43
2019-02-14T15:23:47.190Z,13.30
2019-02-14T15:26:32.304Z,12.53
2019-02-14T15:29:17.224Z,15.23
2019-02-14T15:32:02.477Z,14.37
2019-02-14T15:34:47.607Z,14.43
2019-02-14T15:37:32.991Z,15.50
2019-02-14T15:40:18.126Z,16.13
2019-02-14T15:43:03.238Z,17.20
2019-02-14T15:45:48.381Z,16.93
2019-02-14T15:48:35.824Z,16.60
2019-02-14T15:51:21.203Z,21.20
2019-02-14T15:54:07.443Z,22.70
2019-02-14T15:56:56.243Z,19.70
2019-02-14T15:59:42.442Z,18.33
2019-02-14T16:02:28.570Z,18.00
2019-02-14T16:05:16.782Z,22.73
2019-02-14T16:08:02.924Z,36.17
2019-02-14T16:10:49.704Z,22.73
2019-02-14T16:13:35.545Z,20.93
2019-02-14T16:16:22.580Z,24.53
2019-02-14T16:19:08.857Z,40.27
2019-02-14T16:21:56.124Z,42.07
2019-02-14T16:24:42.958Z,42.17
2019-02-14T16:27:28.704Z,39.27
2019-02-14T16:30:14.150Z,51.80
2019-02-14T16:32:59.433Z,38.17
2019-02-14T16:35:44.692Z,35.93
2019-02-14T16:38:30.051Z,43.27
2019-02-14T16:41:14.984Z,38.27
2019-02-14T16:44:00.449Z,38.17
2019-02-14T16:46:45.665Z,30.10
2019-02-14T16:49:31.045Z,29.53
2019-02-14T16:52:16.292Z,28.97
2019-02-14T16:55:01.485Z,40.03
2019-02-14T16:57:47.249Z,38.17
2019-02-14T17:00:34.517Z,38.10
2019-02-14T17:03:21.445Z,31.33
2019-02-14T17:06:06.531Z,32.10
2019-02-14T17:08:52.225Z,31.70
2019-02-14T17:11:37.861Z,32.00
2019-02-14T17:14:22.909Z,39.00
2019-02-14T17:17:08.396Z,40.70
2019-02-14T17:19:53.873Z,35.57
2019-02-14T17:22:39.202Z,32.53
2019-02-14T17:25:24.711Z,35.83
2019-02-14T17:28:09.824Z,36.80
2019-02-14T17:30:55.358Z,42.03
2019-02-14T17:33:40.573Z,41.63
2019-02-14T17:36:25.956Z,37.13
2019-02-14T17:39:10.992Z,38.80
2019-02-14T17:41:56.855Z,42.93
2019-02-14T17:44:42.806Z,46.77
2019-02-14T17:47:28.212Z,52.30
2019-02-14T17:50:14.058Z,42.00
2019-02-14T17:52:59.488Z,40.73
2019-02-14T17:55:44.615Z,37.83
2019-02-14T17:58:30.445Z,44.67
2019-02-14T18:01:15.757Z,47.07
2019-02-14T18:04:00.806Z,42.27
2019-02-14T18:06:46.201Z,41.93
2019-02-14T18:09:31.348Z,39.60
2019-02-14T18:12:16.701Z,42.20
2019-02-14T18:15:02.410Z,59.97
2019-02-14T18:17:47.938Z,40.33
2019-02-14T18:20:32.783Z,39.00
2019-02-14T18:23:18.680Z,41.60
2019-02-14T18:26:03.974Z,41.30
2019-02-14T18:28:49.046Z,40.00
2019-02-14T18:31:34.714Z,37.00
2019-02-14T18:34:19.906Z,37.90
2019-02-14T18:37:05.964Z,39.33
2019-02-14T18:39:51.572Z,37.63
2019-02-14T18:42:39.972Z,41.37
2019-02-14T18:45:25.520Z,40.13
2019-02-14T18:48:10.511Z,43.60
2019-02-14T18:50:55.815Z,40.83
2019-02-14T18:53:40.973Z,39.80
2019-02-14T18:56:26.121Z,38.80
2019-02-14T18:59:11.678Z,40.33
2019-02-14T19:01:58.211Z,39.10
2019-02-14T19:04:43.437Z,41.90
2019-02-14T19:07:28.477Z,41.70
2019-02-14T19:10:15.575Z,39.87
2019-02-14T19:13:00.770Z,56.43
2019-02-14T19:15:45.992Z,48.77
2019-02-14T19:18:31.340Z,43.50
2019-02-14T19:21:16.724Z,41.23
2019-02-14T19:24:03.866Z,44.07
2019-02-14T19:26:48.994Z,48.40
2019-02-14T19:29:36.445Z,46.07
2019-02-14T19:32:21.810Z,43.53
2019-02-14T19:35:08.147Z,42.87
2019-02-14T19:37:53.193Z,44.90
2019-02-14T19:40:38.640Z,43.70
2019-02-14T19:43:23.639Z,45.77
2019-02-14T19:46:09.191Z,52.27
2019-02-14T19:48:54.393Z,83.70
2019-02-14T19:51:39.806Z,44.80
2019-02-14T19:54:25.170Z,43.13
2019-02-14T19:57:12.261Z,42.00
2019-02-14T19:59:57.512Z,44.77
2019-02-14T20:02:44.057Z,44.73
2019-02-14T20:05:29.105Z,45.03
2019-02-14T20:08:14.797Z,44.63
2019-02-14T20:11:02.182Z,44.07
2019-02-14T20:13:49.519Z,45.80
2019-02-14T20:16:33.978Z,50.27
2019-02-14T20:19:19.635Z,50.33
2019-02-14T20:22:04.655Z,44.77
2019-02-14T20:24:50.014Z,43.47
2019-02-14T20:27:35.494Z,44.33
2019-02-14T20:30:21.220Z,44.17
2019-02-14T20:33:06.487Z,44.97
2019-02-14T20:35:51.868Z,44.30
2019-02-14T20:38:37.210Z,46.47
2019-02-14T20:41:22.507Z,47.57
2019-02-14T20:44:07.849Z,52.03
2019-02-14T20:46:53.174Z,48.40
2019-02-14T20:49:39.607Z,150.00
2019-02-14T20:52:24.495Z,49.43
2019-02-14T20:55:13.443Z,47.30
2019-02-14T20:57:58.985Z,47.77
2019-02-14T21:00:44.754Z,49.13
2019-02-14T21:03:30.040Z,48.43
2019-02-14T21:06:17.351Z,47.47
2019-02-14T21:09:04.454Z,47.93
2019-02-14T21:11:54.787Z,47.57
2019-02-14T21:14:37.411Z,45.60
2019-02-14T21:17:22.522Z,48.10
2019-02-14T21:20:10.152Z,49.03
2019-02-14T21:22:55.767Z,48.43
2019-02-14T21:25:40.985Z,53.30
2019-02-14T21:28:27.045Z,47.40
2019-02-14T21:31:12.336Z,44.50
2019-02-14T21:33:57.438Z,45.93
2019-02-14T21:36:43.678Z,50.10
2019-02-14T21:39:29.801Z,51.03
2019-02-14T21:42:21.028Z,49.03
2019-02-14T21:45:08.136Z,55.63
2019-02-14T21:47:53.509Z,53.00
2019-02-14T21:50:43.204Z,51.13
2019-02-14T21:53:29.578Z,50.37
2019-02-14T21:56:17.086Z,50.40
2019-02-14T21:59:02.551Z,51.20
2019-02-14T22:01:49.021Z,50.40
2019-02-14T22:04:34.542Z,54.40
2019-02-14T22:07:19.778Z,48.53
2019-02-14T22:10:08.373Z,51.17
2019-02-14T22:12:55.083Z,48.47
2019-02-14T22:15:40.095Z,48.03
2019-02-14T22:18:25.147Z,48.63
2019-02-14T22:21:10.316Z,49.33
2019-02-14T22:23:55.365Z,82.97
2019-02-14T22:26:40.815Z,51.80
2019-02-14T22:29:26.438Z,53.57
2019-02-14T22:32:12.082Z,54.63
2019-02-14T22:34:57.503Z,48.67
2019-02-14T22:37:42.746Z,49.13
2019-02-14T22:40:27.693Z,47.77
2019-02-14T22:43:12.962Z,48.63
2019-02-14T22:45:58.408Z,49.27
2019-02-14T22:48:43.445Z,46.33
2019-02-14T22:51:29.161Z,43.17
2019-02-14T22:54:14.212Z,43.13
2019-02-14T22:56:59.487Z,44.83
2019-02-14T22:59:45.104Z,46.43
2019-02-14T23:02:30.685Z,43.00
2019-02-14T23:05:16.216Z,44.57
2019-02-14T23:08:01.401Z,42.10
2019-02-14T23:10:46.709Z,41.43
2019-02-14T23:13:31.756Z,42.43
2019-02-14T23:16:17.161Z,42.43
2019-02-14T23:19:02.481Z,44.33
2019-02-14T23:21:47.524Z,43.30
2019-02-14T23:24:33.002Z,45.13
2019-02-14T23:27:18.064Z,43.80
2019-02-14T23:30:10.036Z,45.83
2019-02-14T23:32:54.902Z,44.53
2019-02-14T23:35:40.151Z,47.30
2019-02-14T23:38:25.482Z,45.47
2019-02-14T23:41:10.612Z,45.57
2019-02-14T23:43:56.041Z,44.60
2019-02-14T23:46:41.291Z,45.27
2019-02-14T23:49:26.906Z,45.37
2019-02-14T23:52:12.110Z,43.67
2019-02-14T23:54:56.924Z,42.50
2019-02-14T23:57:42.879Z,42.87
